createdAt,value
2018-05-21T00:00:56.139Z,3.73
2018-05-21T00:03:23.089Z,4.60
2018-05-21T00:05:49.318Z,4.50
2018-05-21T00:08:15.536Z,3.60
2018-05-21T00:10:41.776Z,3.87
2018-05-21T00:13:08.067Z,3.80
2018-05-21T00:15:34.400Z,3.60
2018-05-21T00:18:00.546Z,3.87
2018-05-21T00:20:26.795Z,3.00
2018-05-21T00:22:53.050Z,4.07
2018-05-21T00:25:19.305Z,3.50
2018-05-21T00:27:45.900Z,3.40
2018-05-21T00:30:12.882Z,3.70
2018-05-21T00:32:39.120Z,3.03
2018-05-21T00:35:05.294Z,4.27
2018-05-21T00:37:32.251Z,3.63
2018-05-21T00:39:59.206Z,3.53
2018-05-21T00:42:26.175Z,3.97
2018-05-21T00:44:52.751Z,4.50
2018-05-21T00:47:18.976Z,4.07
2018-05-21T00:49:45.167Z,3.90
2018-05-21T00:52:12.131Z,4.03
2018-05-21T00:54:50.548Z,4.77
2018-05-21T00:57:16.752Z,4.10
2018-05-21T00:59:43.675Z,4.03
2018-05-21T01:02:09.895Z,4.27
2018-05-21T01:04:36.111Z,3.97
2018-05-21T01:07:02.352Z,4.30
2018-05-21T01:09:28.547Z,5.00
2018-05-21T01:11:55.538Z,4.90
2018-05-21T01:14:21.790Z,4.40
2018-05-21T01:16:48.071Z,4.97
2018-05-21T01:19:14.690Z,4.67
2018-05-21T01:21:40.952Z,4.83
2018-05-21T01:24:07.956Z,4.87
2018-05-21T01:26:34.157Z,4.70
2018-05-21T01:29:01.144Z,5.20
2018-05-21T01:31:27.395Z,5.07
2018-05-21T01:33:53.721Z,5.10
2018-05-21T01:36:20.353Z,5.60
2018-05-21T01:38:46.570Z,5.60
2018-05-21T01:41:12.762Z,5.10
2018-05-21T01:43:39.001Z,5.83
2018-05-21T01:46:05.259Z,6.03
2018-05-21T01:48:32.219Z,5.20
2018-05-21T01:50:58.510Z,5.37
2018-05-21T01:53:24.721Z,5.87
2018-05-21T01:55:50.998Z,5.67
2018-05-21T01:58:17.971Z,5.43
2018-05-21T02:00:44.940Z,5.90
2018-05-21T02:03:11.137Z,5.53
2018-05-21T02:05:38.129Z,5.00
2018-05-21T02:08:04.697Z,5.37
2018-05-21T02:10:30.912Z,5.80
2018-05-21T02:12:57.177Z,6.17
2018-05-21T02:15:23.458Z,6.23
2018-05-21T02:17:50.466Z,5.83
2018-05-21T02:20:16.692Z,6.90
2018-05-21T02:22:42.928Z,5.33
2018-05-21T02:25:09.118Z,5.50
2018-05-21T02:27:36.139Z,6.67
2018-05-21T02:30:03.846Z,5.47
2018-05-21T02:32:30.451Z,6.10
2018-05-21T02:34:56.657Z,6.40
2018-05-21T02:37:22.881Z,6.03
2018-05-21T02:39:50.260Z,7.37
2018-05-21T02:42:16.485Z,6.23
2018-05-21T02:44:42.695Z,5.97
2018-05-21T02:47:09.662Z,6.90
2018-05-21T02:49:35.905Z,7.33
2018-05-21T02:52:02.112Z,7.80
2018-05-21T02:54:28.332Z,5.93
2018-05-21T02:56:54.935Z,6.40
2018-05-21T02:59:21.135Z,5.73
2018-05-21T03:01:47.340Z,5.77
2018-05-21T03:04:14.288Z,5.57
2018-05-21T03:06:41.235Z,7.07
2018-05-21T03:09:07.453Z,6.90
2018-05-21T03:11:34.143Z,5.60
2018-05-21T03:14:00.288Z,6.00
2018-05-21T03:16:26.545Z,5.73
2018-05-21T03:18:53.392Z,5.47
2018-05-21T03:21:19.972Z,6.53
2018-05-21T03:23:47.646Z,6.13
2018-05-21T03:26:13.867Z,5.90
2018-05-21T03:28:40.072Z,7.93
2018-05-21T03:31:06.294Z,7.83
2018-05-21T03:33:32.510Z,8.10
2018-05-21T03:35:59.490Z,6.10
2018-05-21T03:38:25.713Z,7.83
2018-05-21T03:40:51.916Z,7.70
2018-05-21T03:43:18.916Z,7.20
2018-05-21T03:45:45.136Z,6.00
2018-05-21T03:48:11.742Z,5.67
2018-05-21T03:50:38.313Z,6.63
2018-05-21T03:53:04.537Z,6.10
2018-05-21T03:55:31.446Z,6.83
2018-05-21T03:57:57.656Z,7.97
2018-05-21T04:00:36.322Z,8.13
2018-05-21T04:03:09.370Z,6.83
2018-05-21T04:05:35.674Z,6.10
2018-05-21T04:08:01.938Z,7.13
2018-05-21T04:10:28.195Z,9.13
2018-05-21T04:12:54.417Z,7.60
2018-05-21T04:15:20.641Z,7.20
2018-05-21T04:17:47.237Z,6.80
2018-05-21T04:20:14.207Z,7.13
2018-05-21T04:22:41.172Z,6.83
2018-05-21T04:25:07.402Z,7.30
2018-05-21T04:27:33.613Z,5.80
2018-05-21T04:30:00.591Z,7.57
2018-05-21T04:32:26.836Z,7.20
2018-05-21T04:34:53.097Z,6.13
2018-05-21T04:37:19.331Z,7.97
2018-05-21T04:39:45.556Z,7.00
2018-05-21T04:42:11.771Z,7.17
2018-05-21T04:44:37.994Z,8.57
2018-05-21T04:47:04.976Z,8.63
2018-05-21T04:49:31.196Z,7.97
2018-05-21T04:51:57.426Z,6.30
2018-05-21T04:54:24.396Z,7.37
2018-05-21T04:56:50.667Z,5.73
2018-05-21T04:59:16.900Z,6.87
2018-05-21T05:01:43.168Z,7.90
2018-05-21T05:04:10.093Z,8.03
2018-05-21T05:06:36.333Z,7.47
2018-05-21T05:09:02.666Z,7.47
2018-05-21T05:11:28.872Z,7.60
2018-05-21T05:13:55.127Z,7.73
2018-05-21T05:16:21.336Z,7.50
2018-05-21T05:18:47.572Z,7.37
2018-05-21T05:21:13.810Z,6.33
2018-05-21T05:23:40.773Z,7.03
2018-05-21T05:26:07.706Z,5.80
2018-05-21T05:28:33.933Z,7.00
2018-05-21T05:31:00.173Z,6.57
2018-05-21T05:33:26.373Z,7.43
2018-05-21T05:35:53.330Z,7.20
2018-05-21T05:38:19.889Z,6.27
2018-05-21T05:40:46.146Z,6.80
2018-05-21T05:43:12.437Z,6.37
2018-05-21T05:45:39.422Z,6.30
2018-05-21T05:48:05.677Z,6.53
2018-05-21T05:50:31.932Z,7.73
2018-05-21T05:52:58.156Z,6.70
2018-05-21T05:55:25.128Z,6.23
2018-05-21T05:57:51.393Z,6.73
2018-05-21T06:00:18.417Z,6.50
2018-05-21T06:02:46.132Z,7.03
2018-05-21T06:05:12.353Z,8.33
2018-05-21T06:07:38.943Z,7.47
2018-05-21T06:10:05.192Z,6.60
2018-05-21T06:12:31.403Z,7.87
2018-05-21T06:14:57.641Z,6.83
2018-05-21T06:17:23.884Z,7.27
2018-05-21T06:19:50.131Z,6.63
2018-05-21T06:22:16.394Z,6.30
2018-05-21T06:24:42.993Z,6.70
2018-05-21T06:27:09.217Z,7.17
2018-05-21T06:29:35.413Z,6.80
2018-05-21T06:32:02.374Z,7.47
2018-05-21T06:34:29.365Z,6.00
2018-05-21T06:36:55.966Z,7.60
2018-05-21T06:39:22.564Z,5.47
2018-05-21T06:41:48.847Z,6.77
2018-05-21T06:44:15.814Z,6.40
2018-05-21T06:46:42.055Z,6.77
2018-05-21T06:49:08.252Z,5.70
2018-05-21T06:51:34.497Z,5.67
2018-05-21T06:54:01.468Z,5.47
2018-05-21T06:56:28.043Z,6.30
2018-05-21T06:58:54.297Z,4.97
2018-05-21T07:01:20.522Z,5.80
2018-05-21T07:03:46.766Z,5.57
2018-05-21T07:06:13.009Z,6.40
2018-05-21T07:08:39.247Z,6.27
2018-05-21T07:11:06.273Z,5.40
2018-05-21T07:13:32.503Z,5.57
2018-05-21T07:15:58.759Z,6.07
2018-05-21T07:18:25.012Z,5.50
2018-05-21T07:20:51.931Z,6.17
2018-05-21T07:23:18.157Z,4.80
2018-05-21T07:25:44.371Z,4.73
2018-05-21T07:28:11.032Z,5.13
2018-05-21T07:30:37.252Z,4.73
2018-05-21T07:33:03.489Z,5.13
2018-05-21T07:35:30.112Z,5.00
2018-05-21T07:37:57.064Z,5.20
2018-05-21T07:40:24.081Z,4.60
2018-05-21T07:42:50.364Z,4.50
2018-05-21T07:45:17.360Z,4.67
2018-05-21T07:47:43.583Z,5.33
2018-05-21T07:50:09.860Z,4.63
2018-05-21T07:52:36.065Z,4.73
2018-05-21T07:55:03.082Z,5.20
2018-05-21T07:57:29.304Z,4.50
2018-05-21T07:59:56.282Z,5.37
2018-05-21T08:02:22.555Z,5.40
2018-05-21T08:04:49.511Z,4.63
2018-05-21T08:07:15.764Z,5.23
2018-05-21T08:09:42.427Z,5.07
2018-05-21T08:12:09.434Z,4.67
2018-05-21T08:14:36.102Z,5.10
2018-05-21T08:17:02.251Z,6.07
2018-05-21T08:19:29.224Z,4.53
2018-05-21T08:21:55.483Z,4.87
2018-05-21T08:24:21.792Z,4.63
2018-05-21T08:26:48.118Z,4.57
2018-05-21T08:29:15.114Z,4.87
2018-05-21T08:31:41.439Z,5.37
2018-05-21T08:34:08.407Z,4.40
2018-05-21T08:36:34.688Z,4.00
2018-05-21T08:39:01.347Z,4.57
2018-05-21T08:41:28.292Z,4.53
2018-05-21T08:43:55.312Z,4.77
2018-05-21T08:46:22.257Z,4.47
2018-05-21T08:48:48.540Z,4.23
2018-05-21T08:51:15.669Z,5.00
2018-05-21T08:53:43.249Z,5.60
2018-05-21T08:56:10.244Z,4.73
2018-05-21T08:58:38.820Z,4.30
2018-05-21T09:01:05.815Z,4.10
2018-05-21T09:03:32.035Z,5.03
2018-05-21T09:05:58.335Z,4.47
2018-05-21T09:08:24.556Z,4.70
2018-05-21T09:10:51.544Z,4.70
2018-05-21T09:13:17.763Z,5.87
2018-05-21T09:15:44.090Z,5.17
2018-05-21T09:18:11.063Z,3.80
2018-05-21T09:20:37.234Z,4.30
2018-05-21T09:23:03.485Z,4.63
2018-05-21T09:25:29.760Z,3.60
2018-05-21T09:27:56.386Z,3.70
2018-05-21T09:30:23.383Z,3.33
2018-05-21T09:32:49.583Z,3.20
2018-05-21T09:35:15.798Z,3.20
2018-05-21T09:37:42.409Z,3.10
2018-05-21T09:40:08.644Z,2.90
2018-05-21T09:42:34.909Z,2.40
2018-05-21T09:45:01.119Z,2.90
2018-05-21T09:47:28.121Z,2.90
2018-05-21T09:49:54.374Z,2.90
2018-05-21T09:52:20.630Z,2.60
2018-05-21T09:54:47.644Z,2.50
2018-05-21T09:57:13.865Z,3.00
2018-05-21T09:59:40.484Z,3.57
2018-05-21T10:02:06.778Z,3.17
2018-05-21T10:04:33.004Z,3.60
2018-05-21T10:06:59.974Z,3.17
2018-05-21T10:09:26.570Z,3.37
2018-05-21T10:11:53.580Z,2.90
2018-05-21T10:14:20.560Z,3.50
2018-05-21T10:16:46.788Z,3.10
2018-05-21T10:19:13.075Z,4.10
2018-05-21T10:21:39.300Z,3.50
2018-05-21T10:24:06.284Z,3.47
2018-05-21T10:26:32.740Z,3.30
2018-05-21T10:28:59.354Z,3.20
2018-05-21T10:31:25.580Z,3.57
2018-05-21T10:33:51.869Z,4.30
2018-05-21T10:36:18.115Z,3.40
2018-05-21T10:38:44.370Z,3.57
2018-05-21T10:41:11.348Z,3.70
2018-05-21T10:43:37.905Z,3.57
2018-05-21T10:46:04.164Z,3.57
2018-05-21T10:48:30.665Z,2.93
2018-05-21T10:50:56.947Z,3.40
2018-05-21T10:53:23.180Z,2.40
2018-05-21T10:55:49.511Z,3.57
2018-05-21T10:58:15.774Z,3.10
2018-05-21T11:00:41.999Z,2.43
2018-05-21T11:03:08.237Z,2.67
2018-05-21T11:05:34.477Z,2.53
2018-05-21T11:08:01.074Z,3.10
2018-05-21T11:10:27.316Z,2.33
2018-05-21T11:12:53.580Z,2.90
2018-05-21T11:15:19.819Z,3.03
2018-05-21T11:17:46.074Z,2.93
2018-05-21T11:20:13.052Z,2.10
2018-05-21T11:22:39.260Z,2.53
2018-05-21T11:25:06.256Z,2.90
2018-05-21T11:27:32.564Z,2.80
2018-05-21T11:29:58.685Z,3.00
2018-05-21T11:32:25.644Z,2.63
2018-05-21T11:34:52.641Z,2.60
2018-05-21T11:37:19.625Z,2.33
2018-05-21T11:39:45.879Z,2.73
2018-05-21T11:42:12.846Z,1.90
2018-05-21T11:44:39.102Z,3.00
2018-05-21T11:47:05.396Z,3.23
2018-05-21T11:49:31.995Z,2.40
2018-05-21T11:51:58.233Z,3.40
2018-05-21T11:54:24.483Z,2.73
2018-05-21T11:56:51.471Z,4.70
2018-05-21T11:59:18.426Z,3.73
2018-05-21T12:01:45.074Z,4.40
2018-05-21T12:04:12.076Z,4.67
2018-05-21T12:06:38.335Z,4.47
2018-05-21T12:09:04.724Z,4.00
2018-05-21T12:11:31.298Z,4.60
2018-05-21T12:13:57.566Z,3.20
2018-05-21T12:16:24.539Z,3.57
2018-05-21T12:18:50.778Z,3.40
2018-05-21T12:21:17.048Z,3.40
2018-05-21T12:23:43.311Z,4.77
2018-05-21T12:26:09.555Z,4.93
2018-05-21T12:28:35.830Z,5.03
2018-05-21T12:31:02.041Z,5.43
2018-05-21T12:33:29.019Z,5.80
2018-05-21T12:35:55.246Z,6.17
2018-05-21T12:38:21.894Z,5.83
2018-05-21T12:40:48.151Z,5.03
2018-05-21T12:43:14.426Z,4.87
2018-05-21T12:45:40.654Z,4.53
2018-05-21T12:48:06.886Z,5.53
2018-05-21T12:50:33.114Z,5.20
2018-05-21T12:52:59.355Z,5.03
2018-05-21T12:55:25.641Z,3.70
2018-05-21T12:57:52.285Z,5.20
2018-05-21T13:00:19.266Z,4.37
2018-05-21T13:02:45.491Z,5.30
2018-05-21T13:05:11.762Z,4.70
2018-05-21T13:07:37.979Z,5.67
2018-05-21T13:10:05.006Z,6.00
2018-05-21T13:12:31.220Z,5.23
2018-05-21T13:14:58.291Z,5.27
2018-05-21T13:17:25.255Z,5.20
2018-05-21T13:19:51.486Z,5.40
2018-05-21T13:22:17.720Z,5.00
2018-05-21T13:24:43.966Z,4.77
2018-05-21T13:27:10.179Z,5.13
2018-05-21T13:29:36.461Z,4.90
2018-05-21T13:32:03.420Z,5.00
2018-05-21T13:34:30.655Z,5.17
2018-05-21T13:36:57.224Z,5.20
2018-05-21T13:39:23.419Z,4.00
2018-05-21T13:41:49.666Z,4.07
2018-05-21T13:44:15.897Z,3.70
2018-05-21T13:46:42.144Z,4.70
2018-05-21T13:49:08.380Z,4.33
2018-05-21T13:51:35.392Z,4.20
2018-05-21T13:54:01.615Z,4.00
2018-05-21T13:56:28.604Z,3.77
2018-05-21T13:58:54.873Z,4.17
2018-05-21T14:01:21.100Z,4.50
2018-05-21T14:03:47.336Z,3.97
2018-05-21T14:08:46.357Z,3.83
2018-05-21T14:11:12.919Z,4.10
2018-05-21T14:13:39.195Z,3.83
2018-05-21T14:16:05.416Z,4.77
2018-05-21T14:18:31.728Z,4.30
2018-05-21T14:20:57.935Z,4.23
2018-05-21T14:23:24.165Z,4.33
2018-05-21T14:25:50.465Z,4.10
2018-05-21T14:28:16.677Z,3.37
2018-05-21T14:30:43.685Z,3.30
2018-05-21T14:33:09.955Z,3.70
2018-05-21T14:35:36.170Z,3.90
2018-05-21T14:38:02.392Z,3.73
2018-05-21T14:40:28.670Z,3.47
2018-05-21T14:42:55.639Z,3.23
2018-05-21T14:45:22.637Z,3.60
2018-05-21T14:47:49.632Z,3.93
2018-05-21T14:50:16.700Z,4.30
2018-05-21T14:52:42.951Z,4.00
2018-05-21T14:55:09.594Z,3.90
2018-05-21T14:57:35.822Z,3.62
2018-05-21T15:00:02.095Z,3.62
2018-05-21T15:02:28.345Z,3.17
2018-05-21T15:04:54.634Z,3.50
2018-05-21T15:07:20.817Z,3.30
2018-05-21T15:09:47.737Z,3.40
2018-05-21T15:12:14.022Z,3.63
2018-05-21T15:14:40.218Z,3.80
2018-05-21T15:17:06.491Z,3.57
2018-05-21T15:19:33.442Z,3.53
2018-05-21T15:21:59.750Z,3.37
2018-05-21T15:24:26.001Z,3.33
2018-05-21T15:26:52.251Z,3.77
2018-05-21T15:29:19.995Z,4.87
2018-05-21T15:31:46.292Z,3.83
2018-05-21T15:34:12.475Z,4.00
2018-05-21T15:36:39.082Z,2.90
2018-05-21T15:39:05.479Z,3.30
2018-05-21T15:41:32.476Z,3.20
2018-05-21T15:43:58.720Z,2.70
2018-05-21T15:46:24.933Z,3.90
2018-05-21T15:48:51.197Z,3.67
2018-05-21T15:51:17.397Z,2.97
2018-05-21T15:53:43.637Z,2.80
2018-05-21T15:56:09.855Z,3.43
2018-05-21T15:58:36.822Z,2.93
2018-05-21T16:01:03.040Z,2.97
2018-05-21T16:03:30.060Z,2.90
2018-05-21T16:05:56.270Z,3.03
2018-05-21T16:08:22.507Z,3.40
2018-05-21T16:10:48.759Z,3.40
2018-05-21T16:13:15.011Z,3.30
2018-05-21T16:15:41.296Z,3.27
2018-05-21T16:18:07.521Z,2.57
2018-05-21T16:20:33.741Z,3.10
2018-05-21T16:23:00.812Z,4.30
2018-05-21T16:25:27.032Z,3.37
2018-05-21T16:27:54.001Z,3.83
2018-05-21T16:30:20.285Z,5.20
2018-05-21T16:32:46.556Z,4.47
2018-05-21T16:35:13.522Z,3.80
2018-05-21T16:37:39.816Z,4.10
2018-05-21T16:40:07.513Z,3.80
2018-05-21T16:42:34.505Z,3.83
2018-05-21T16:45:00.762Z,3.80
2018-05-21T16:47:27.006Z,4.07
2018-05-21T16:49:53.279Z,7.20
2018-05-21T16:52:20.291Z,4.87
2018-05-21T16:54:46.533Z,4.87
2018-05-21T16:57:12.776Z,5.03
2018-05-21T16:59:39.062Z,3.97
2018-05-21T17:02:05.328Z,6.07
2018-05-21T17:04:31.625Z,5.77
2018-05-21T17:06:57.972Z,4.93
2018-05-21T17:09:24.560Z,4.60
2018-05-21T17:11:50.784Z,5.13
2018-05-21T17:14:17.783Z,4.90
2018-05-21T17:16:44.038Z,4.70
2018-05-21T17:19:10.291Z,3.50
2018-05-21T17:21:36.595Z,3.43
2018-05-21T17:24:03.047Z,3.47
2018-05-21T17:26:29.337Z,3.37
2018-05-21T17:28:55.614Z,3.70
2018-05-21T17:31:21.941Z,4.43
2018-05-21T17:33:48.976Z,4.70
2018-05-21T17:36:16.050Z,3.70
2018-05-21T17:38:43.023Z,3.30
2018-05-21T17:41:11.741Z,2.93
2018-05-21T17:43:38.001Z,4.77
2018-05-21T17:46:04.680Z,5.27
2018-05-21T17:48:30.978Z,4.70
2018-05-21T17:50:58.717Z,3.90
2018-05-21T17:53:25.025Z,3.30
2018-05-21T17:55:51.241Z,5.70
2018-05-21T17:58:18.301Z,8.57
2018-05-21T18:00:44.636Z,7.10
2018-05-21T18:03:11.694Z,7.77
2018-05-21T18:05:38.410Z,8.30
2018-05-21T18:08:05.036Z,5.10
2018-05-21T18:10:31.388Z,3.00
2018-05-21T18:12:57.677Z,3.53
2018-05-21T18:15:24.035Z,3.23
2018-05-21T18:17:50.288Z,3.53
2018-05-21T18:20:16.567Z,2.90
2018-05-21T18:22:43.574Z,1.50
2018-05-21T18:25:10.668Z,1.43
2018-05-21T18:27:37.278Z,1.70
2018-05-21T18:30:03.627Z,1.97
2018-05-21T18:32:29.971Z,1.90
2018-05-21T18:34:56.578Z,1.90
2018-05-21T18:37:23.619Z,1.90
2018-05-21T18:39:50.613Z,1.97
2018-05-21T18:42:16.992Z,2.40
2018-05-21T18:44:43.179Z,2.40
2018-05-21T18:47:09.477Z,2.30
2018-05-21T18:49:35.741Z,1.80
2018-05-21T18:52:02.021Z,2.40
2018-05-21T18:54:29.022Z,2.00
2018-05-21T18:56:55.371Z,2.33
2018-05-21T18:59:21.666Z,2.70
2018-05-21T19:01:47.943Z,2.90
2018-05-21T19:04:14.638Z,3.10
2018-05-21T19:06:41.301Z,2.40
2018-05-21T19:09:08.344Z,3.50
2018-05-21T19:11:34.642Z,3.57
2018-05-21T19:14:00.933Z,4.17
2018-05-21T19:16:27.236Z,4.23
2018-05-21T19:18:53.897Z,3.37
2018-05-21T19:21:20.489Z,2.70
2018-05-21T19:23:46.746Z,2.53
2018-05-21T19:26:13.052Z,2.87
2018-05-21T19:28:39.289Z,4.23
2018-05-21T19:31:05.594Z,3.50
2018-05-21T19:33:32.568Z,2.80
2018-05-21T19:35:58.897Z,4.10
2018-05-21T19:38:25.238Z,3.60
2018-05-21T19:40:51.576Z,3.20
2018-05-21T19:43:17.895Z,3.63
2018-05-21T19:45:44.258Z,3.60
2018-05-21T19:48:10.598Z,4.87
2018-05-21T19:50:36.862Z,4.57
2018-05-21T19:53:03.217Z,5.63
2018-05-21T19:55:29.832Z,4.20
2018-05-21T19:57:56.849Z,3.77
2018-05-21T20:00:23.152Z,4.60
2018-05-21T20:02:49.862Z,3.33
2018-05-21T20:05:16.162Z,2.67
2018-05-21T20:07:42.429Z,6.23
2018-05-21T20:10:09.147Z,4.90
2018-05-21T20:12:35.383Z,3.77
2018-05-21T20:15:02.019Z,3.73
2018-05-21T20:17:28.348Z,3.40
2018-05-21T20:19:55.327Z,4.20
2018-05-21T20:22:22.526Z,3.90
2018-05-21T20:24:49.591Z,3.97
2018-05-21T20:27:16.632Z,5.30
2018-05-21T20:29:42.915Z,6.17
2018-05-21T20:32:09.192Z,5.50
2018-05-21T20:34:35.913Z,4.03
2018-05-21T20:37:03.127Z,4.30
2018-05-21T20:39:29.346Z,3.23
2018-05-21T20:41:55.982Z,3.40
2018-05-21T20:44:22.991Z,4.93
2018-05-21T20:46:49.296Z,2.90
2018-05-21T20:49:16.292Z,3.40
2018-05-21T20:51:42.590Z,3.90
2018-05-21T20:54:09.544Z,4.40
2018-05-21T20:56:36.593Z,4.20
2018-05-21T20:59:03.208Z,4.33
2018-05-21T21:01:32.448Z,4.50
2018-05-21T21:04:00.968Z,3.73
2018-05-21T21:06:27.759Z,3.70
2018-05-21T21:08:55.182Z,4.60
2018-05-21T21:11:22.464Z,4.23
2018-05-21T21:13:49.684Z,3.43
2018-05-21T21:16:16.575Z,4.10
2018-05-21T21:18:43.872Z,4.80
2018-05-21T21:21:10.922Z,3.83
2018-05-21T21:23:37.672Z,3.70
2018-05-21T21:26:04.827Z,3.70
2018-05-21T21:28:32.430Z,3.73
2018-05-21T21:30:58.684Z,3.10
2018-05-21T21:33:26.937Z,3.80
2018-05-21T21:35:53.205Z,4.53
2018-05-21T21:38:19.955Z,5.23
2018-05-21T21:40:46.227Z,3.93
2018-05-21T21:43:13.889Z,3.07
2018-05-21T21:45:40.189Z,5.10
2018-05-21T21:48:07.170Z,4.13
2018-05-21T21:50:33.825Z,4.63
2018-05-21T21:53:00.098Z,3.60
2018-05-21T21:55:26.414Z,3.63
2018-05-21T21:57:53.369Z,4.50
2018-05-21T22:00:20.072Z,4.00
2018-05-21T22:02:46.273Z,4.67
2018-05-21T22:05:12.547Z,4.17
2018-05-21T22:07:38.821Z,3.23
2018-05-21T22:10:05.834Z,4.63
2018-05-21T22:12:32.105Z,3.47
2018-05-21T22:14:59.123Z,3.87
2018-05-21T22:17:25.355Z,3.93
2018-05-21T22:19:51.597Z,2.90
2018-05-21T22:22:18.246Z,2.90
2018-05-21T22:24:45.244Z,3.30
2018-05-21T22:27:11.508Z,2.73
2018-05-21T22:29:37.754Z,3.17
2018-05-21T22:32:04.022Z,3.63
2018-05-21T22:34:30.278Z,3.13
2018-05-21T22:36:57.264Z,3.97
2018-05-21T22:39:23.539Z,4.43
2018-05-21T22:41:49.780Z,2.87
2018-05-21T22:44:16.044Z,4.40
2018-05-21T22:46:42.305Z,3.93
2018-05-21T22:49:09.653Z,3.80
2018-05-21T22:51:35.928Z,3.33
2018-05-21T22:54:02.209Z,3.50
2018-05-21T22:56:28.464Z,4.00
2018-05-21T22:58:54.712Z,4.57
2018-05-21T23:01:21.019Z,3.20
2018-05-21T23:03:47.277Z,3.30
2018-05-21T23:06:13.483Z,3.40
2018-05-21T23:08:40.484Z,3.90
2018-05-21T23:11:06.733Z,2.83
2018-05-21T23:13:33.005Z,3.60
2018-05-21T23:16:00.015Z,3.70
2018-05-21T23:18:26.290Z,2.47
2018-05-21T23:20:53.279Z,3.37
2018-05-21T23:23:19.575Z,3.10
2018-05-21T23:25:46.194Z,3.20
2018-05-21T23:28:12.432Z,3.47
2018-05-21T23:30:38.675Z,4.10
2018-05-21T23:33:04.943Z,2.43
2018-05-21T23:35:31.542Z,2.00
2018-05-21T23:37:58.175Z,2.50
2018-05-21T23:40:24.393Z,3.33
2018-05-21T23:42:50.652Z,2.30
2018-05-21T23:45:17.638Z,2.53
2018-05-21T23:47:44.619Z,2.83
2018-05-21T23:50:11.262Z,2.80
2018-05-21T23:52:37.523Z,2.37
2018-05-21T23:55:03.793Z,4.03
2018-05-21T23:57:30.129Z,2.90
2018-05-21T23:59:56.363Z,3.50
